createdAt,value
2023-03-05T00:01:35.720Z,48.23
2023-03-05T00:04:08.087Z,46.84
2023-03-05T00:06:35.383Z,46.67
2023-03-05T00:09:03.421Z,47.54
2023-03-05T00:11:33.505Z,48.04
2023-03-05T00:14:04.412Z,48.47
2023-03-05T00:16:35.906Z,48.85
2023-03-05T00:19:03.953Z,48.17
2023-03-05T00:21:40.215Z,47.47
2023-03-05T00:24:18.068Z,47.90
2023-03-05T00:26:46.660Z,47.52
2023-03-05T00:29:23.910Z,47.80
2023-03-05T00:31:51.370Z,47.36
2023-03-05T00:34:20.441Z,47.99
2023-03-05T00:36:52.425Z,47.51
2023-03-05T00:39:22.245Z,48.42
2023-03-05T00:41:50.452Z,48.36
2023-03-05T00:44:17.712Z,47.19
2023-03-05T00:46:45.032Z,46.72
2023-03-05T00:49:12.332Z,47.03
2023-03-05T00:51:39.724Z,47.17
2023-03-05T00:54:07.443Z,48.15
2023-03-05T00:56:35.119Z,48.02
2023-03-05T00:59:02.961Z,48.00
2023-03-05T01:01:30.461Z,48.53
2023-03-05T01:03:59.600Z,48.52
2023-03-05T01:06:29.396Z,48.16
2023-03-05T01:08:56.808Z,46.91
2023-03-05T01:11:24.479Z,47.18
2023-03-05T01:13:52.218Z,47.71
2023-03-05T01:16:19.647Z,49.33
2023-03-05T01:18:47.240Z,49.82
2023-03-05T01:21:14.513Z,48.93
2023-03-05T01:23:41.778Z,48.37
2023-03-05T01:26:09.655Z,48.29
2023-03-05T01:28:38.149Z,47.90
2023-03-05T01:31:10.465Z,47.53
2023-03-05T01:33:39.372Z,47.99
2023-03-05T01:36:15.523Z,48.76
2023-03-05T01:38:45.142Z,48.23
2023-03-05T01:41:15.664Z,48.01
2023-03-05T01:43:46.181Z,48.90
2023-03-05T01:46:34.862Z,49.35
2023-03-05T01:49:23.257Z,48.42
2023-03-05T01:52:20.052Z,48.13
2023-03-05T01:54:56.456Z,48.93
2023-03-05T01:57:38.294Z,48.62
2023-03-05T02:00:17.052Z,47.81
2023-03-05T02:02:50.214Z,48.44
2023-03-05T02:05:27.102Z,47.56
2023-03-05T02:08:02.176Z,47.85
2023-03-05T02:10:42.263Z,48.16
2023-03-05T02:13:19.358Z,48.05
2023-03-05T02:15:47.733Z,47.81
2023-03-05T02:18:17.017Z,47.34
2023-03-05T02:26:00.659Z,47.99
2023-03-05T02:28:45.630Z,48.51
2023-03-05T02:31:20.673Z,47.60
2023-03-05T02:33:49.691Z,47.72
2023-03-05T02:36:18.995Z,48.19
2023-03-05T02:38:47.337Z,48.18
2023-03-05T02:41:16.342Z,49.17
2023-03-05T02:43:44.169Z,50.17
2023-03-05T02:46:12.097Z,50.58
2023-03-05T02:48:39.984Z,50.45
2023-03-05T02:51:09.542Z,51.48
2023-03-05T02:53:37.047Z,51.34
2023-03-05T02:56:04.766Z,51.82
2023-03-05T02:58:34.806Z,51.49
2023-03-05T03:01:02.299Z,51.50
2023-03-05T03:03:30.676Z,51.28
2023-03-05T03:05:58.287Z,50.73
2023-03-05T03:08:25.440Z,50.92
2023-03-05T03:10:52.762Z,50.78
2023-03-05T03:13:19.866Z,51.04
2023-03-05T03:15:47.000Z,50.74
2023-03-05T03:18:14.175Z,50.30
2023-03-05T03:20:42.412Z,49.70
2023-03-05T03:23:09.553Z,50.21
2023-03-05T03:25:36.701Z,50.43
2023-03-05T03:28:03.871Z,50.22
2023-03-05T03:30:31.135Z,50.25
2023-03-05T03:32:58.338Z,50.16
2023-03-05T03:35:25.512Z,50.04
2023-03-05T03:37:52.818Z,50.67
2023-03-05T03:40:20.398Z,50.56
2023-03-05T03:42:47.773Z,49.88
2023-03-05T03:45:15.092Z,50.00
2023-03-05T03:47:42.319Z,51.81
2023-03-05T03:50:11.570Z,52.86
2023-03-05T03:52:38.970Z,51.67
2023-03-05T03:55:07.355Z,51.57
2023-03-05T03:57:34.979Z,51.97
2023-03-05T04:00:07.627Z,51.67
2023-03-05T04:02:39.320Z,51.37
2023-03-05T04:05:07.844Z,51.39
2023-03-05T04:07:35.198Z,51.13
2023-03-05T04:10:03.547Z,51.92
2023-03-05T04:12:31.907Z,51.95
2023-03-05T04:14:59.347Z,51.76
2023-03-05T04:17:26.691Z,51.07
2023-03-05T04:19:54.157Z,50.45
2023-03-05T04:22:21.286Z,50.19
2023-03-05T04:24:48.590Z,50.22
2023-03-05T04:27:16.076Z,50.50
2023-03-05T04:29:43.270Z,50.19
2023-03-05T04:32:10.643Z,49.94
2023-03-05T04:34:38.503Z,50.54
2023-03-05T04:37:05.810Z,50.37
2023-03-05T04:39:33.017Z,50.46
2023-03-05T04:42:00.258Z,50.18
2023-03-05T04:44:27.443Z,50.34
2023-03-05T04:46:54.683Z,50.59
2023-03-05T04:49:21.935Z,51.19
2023-03-05T04:51:49.634Z,51.26
2023-03-05T04:54:16.862Z,50.44
2023-03-05T04:56:44.262Z,49.24
2023-03-05T04:59:11.790Z,50.06
2023-03-05T05:01:44.899Z,49.91
2023-03-05T05:04:12.287Z,51.02
2023-03-05T05:06:39.707Z,51.19
2023-03-05T05:09:07.035Z,51.10
2023-03-05T05:11:34.488Z,51.26
2023-03-05T05:14:01.758Z,51.02
2023-03-05T05:16:30.165Z,51.55
2023-03-05T05:18:57.766Z,50.86
2023-03-05T05:21:25.162Z,50.54
2023-03-05T05:23:52.337Z,49.84
2023-03-05T05:26:19.477Z,49.28
2023-03-05T05:28:46.578Z,49.88
2023-03-05T05:31:17.024Z,50.71
2023-03-05T05:33:46.100Z,51.76
2023-03-05T05:36:19.386Z,52.52
2023-03-05T05:38:46.689Z,51.45
2023-03-05T05:41:18.415Z,50.79
2023-03-05T05:43:46.022Z,50.38
2023-03-05T05:46:20.699Z,50.10
2023-03-05T05:48:48.953Z,50.63
2023-03-05T05:51:22.958Z,49.63
2023-03-05T05:53:52.072Z,49.84
2023-03-05T05:56:20.395Z,49.99
2023-03-05T05:58:53.239Z,50.59
2023-03-05T06:01:30.496Z,50.32
2023-03-05T06:03:58.169Z,50.29
2023-03-05T06:06:27.421Z,50.67
2023-03-05T06:08:55.718Z,50.79
2023-03-05T06:11:23.755Z,50.54
2023-03-05T06:13:51.116Z,50.88
2023-03-05T06:16:29.455Z,51.53
2023-03-05T06:18:56.946Z,52.66
2023-03-05T06:21:24.537Z,52.54
2023-03-05T06:23:52.346Z,51.92
2023-03-05T06:26:22.629Z,51.72
2023-03-05T06:28:50.319Z,50.79
2023-03-05T06:31:25.780Z,50.81
2023-03-05T06:33:57.557Z,51.80
2023-03-05T06:36:26.067Z,51.60
2023-03-05T06:38:55.233Z,50.04
2023-03-05T06:41:31.722Z,51.59
2023-03-05T06:44:02.443Z,52.00
2023-03-05T06:46:35.180Z,51.49
2023-03-05T06:49:04.058Z,51.42
2023-03-05T06:51:36.941Z,52.02
2023-03-05T06:54:13.225Z,51.84
2023-03-05T06:56:45.139Z,51.72
2023-03-05T06:59:16.399Z,51.15
2023-03-05T07:01:46.047Z,50.23
2023-03-05T07:04:15.194Z,50.51
2023-03-05T07:06:43.395Z,50.02
2023-03-05T07:09:16.697Z,50.39
2023-03-05T07:11:44.277Z,49.81
2023-03-05T07:14:11.668Z,49.98
2023-03-05T07:16:38.953Z,50.94
2023-03-05T07:19:07.909Z,50.48
2023-03-05T07:21:39.112Z,49.98
2023-03-05T07:24:08.410Z,50.32
2023-03-05T07:26:35.642Z,51.17
2023-03-05T07:29:03.001Z,50.52
2023-03-05T07:31:33.749Z,49.31
2023-03-05T07:34:03.382Z,50.15
2023-03-05T07:36:31.456Z,50.42
2023-03-05T07:38:58.679Z,49.57
2023-03-05T07:41:26.143Z,49.53
2023-03-05T07:43:55.047Z,48.66
2023-03-05T07:46:28.998Z,48.61
2023-03-05T07:48:56.656Z,49.06
2023-03-05T07:51:27.108Z,49.49
2023-03-05T07:53:58.503Z,49.95
2023-03-05T07:56:35.438Z,50.36
2023-03-05T07:59:08.989Z,49.14
2023-03-05T08:01:37.174Z,49.78
2023-03-05T08:04:07.839Z,48.88
2023-03-05T08:06:35.122Z,49.52
2023-03-05T08:09:02.408Z,50.25
2023-03-05T08:11:29.979Z,49.83
2023-03-05T08:13:59.298Z,49.18
2023-03-05T08:16:30.393Z,48.94
2023-03-05T08:18:58.806Z,49.21
2023-03-05T08:21:34.068Z,49.05
2023-03-05T08:24:05.494Z,49.17
2023-03-05T08:26:38.410Z,48.81
2023-03-05T08:29:09.218Z,47.81
2023-03-05T08:31:37.385Z,47.46
2023-03-05T08:34:06.086Z,47.28
2023-03-05T08:36:33.644Z,46.53
2023-03-05T08:39:01.173Z,46.81
2023-03-05T08:41:28.740Z,46.80
2023-03-05T08:43:56.083Z,47.51
2023-03-05T08:46:23.390Z,45.70
2023-03-05T08:48:50.908Z,46.00
2023-03-05T08:51:25.798Z,45.82
2023-03-05T08:53:56.525Z,44.79
2023-03-05T08:56:26.369Z,44.48
2023-03-05T08:58:54.196Z,45.51
2023-03-05T09:01:22.491Z,45.45
2023-03-05T09:03:50.469Z,45.66
2023-03-05T09:06:17.635Z,45.44
2023-03-05T09:08:44.945Z,43.96
2023-03-05T09:11:13.873Z,44.13
2023-03-05T09:13:41.434Z,45.88
2023-03-05T09:16:17.000Z,45.88
2023-03-05T09:18:45.456Z,44.78
2023-03-05T09:21:17.457Z,45.48
2023-03-05T09:23:47.351Z,44.36
2023-03-05T09:26:19.215Z,43.70
2023-03-05T09:28:48.397Z,43.88
2023-03-05T09:31:16.653Z,43.27
2023-03-05T09:33:43.949Z,43.36
2023-03-05T09:36:27.075Z,42.74
2023-03-05T09:38:56.613Z,42.19
2023-03-05T09:42:19.201Z,41.22
2023-03-05T09:45:17.244Z,41.52
2023-03-05T09:48:20.952Z,41.45
2023-03-05T09:51:01.869Z,41.25
2023-03-05T09:53:51.721Z,41.54
2023-03-05T09:56:27.761Z,41.42
2023-03-05T10:01:24.184Z,40.65
2023-03-05T10:04:08.739Z,40.08
2023-03-05T10:06:53.327Z,40.13
2023-03-05T10:10:11.102Z,39.63
2023-03-05T10:12:52.835Z,38.88
2023-03-05T10:16:43.242Z,38.93
2023-03-05T10:19:36.047Z,38.71
2023-03-05T10:22:22.965Z,38.50
2023-03-05T10:25:19.169Z,38.09
2023-03-05T10:28:10.366Z,39.25
2023-03-05T10:31:11.056Z,39.79
2023-03-05T10:34:02.386Z,40.82
2023-03-05T10:37:14.928Z,39.48
2023-03-05T10:40:29.895Z,39.12
2023-03-05T10:43:16.415Z,38.99
2023-03-05T10:45:50.002Z,38.67
2023-03-05T10:48:45.550Z,39.44
2023-03-05T10:51:53.072Z,38.25
2023-03-05T10:54:39.718Z,37.92
2023-03-05T10:57:31.507Z,37.86
2023-03-05T11:00:14.272Z,36.98
2023-03-05T11:03:07.075Z,37.12
2023-03-05T11:05:48.761Z,37.98
2023-03-05T11:08:36.320Z,37.32
2023-03-05T11:11:16.687Z,37.30
2023-03-05T11:13:55.859Z,37.01
2023-03-05T11:16:35.578Z,36.88
2023-03-05T11:19:25.380Z,36.67
2023-03-05T11:22:24.295Z,37.13
2023-03-05T11:25:19.122Z,37.74
2023-03-05T11:28:30.760Z,38.18
2023-03-05T11:31:15.330Z,38.72
2023-03-05T11:34:23.396Z,39.64
2023-03-05T11:36:53.416Z,40.58
2023-03-05T11:40:38.879Z,41.14
2023-03-05T11:43:06.733Z,40.91
2023-03-05T11:46:49.478Z,40.97
2023-03-05T11:50:31.777Z,41.55
2023-03-05T11:54:14.600Z,42.07
2023-03-05T11:57:57.658Z,42.18
2023-03-05T12:01:44.528Z,41.84
2023-03-05T12:05:27.453Z,41.99
2023-03-05T12:09:10.195Z,42.74
2023-03-05T12:11:38.125Z,41.80
2023-03-05T12:15:20.660Z,41.55
2023-03-05T12:18:26.310Z,41.57
2023-03-05T12:21:14.672Z,41.77
2023-03-05T12:24:57.204Z,41.71
2023-03-05T12:28:39.513Z,41.00
2023-03-05T12:31:09.895Z,41.04
2023-03-05T12:33:39.024Z,41.49
2023-03-05T12:36:21.657Z,40.91
2023-03-05T12:38:57.566Z,40.76
2023-03-05T12:41:26.943Z,40.20
2023-03-05T12:44:07.173Z,40.89
2023-03-05T12:46:43.945Z,40.32
2023-03-05T12:49:20.366Z,40.47
2023-03-05T12:51:53.927Z,39.79
2023-03-05T12:54:42.501Z,39.96
2023-03-05T12:57:26.341Z,41.53
2023-03-05T13:00:28.294Z,40.75
2023-03-05T13:02:59.239Z,40.26
2023-03-05T13:05:39.378Z,40.04
2023-03-05T13:08:37.890Z,39.62
2023-03-05T13:11:21.774Z,39.21
2023-03-05T13:13:50.441Z,38.76
2023-03-05T13:16:30.739Z,39.05
2023-03-05T13:19:01.546Z,38.12
2023-03-05T13:21:35.412Z,38.67
2023-03-05T13:24:04.368Z,38.15
2023-03-05T13:26:40.680Z,38.41
2023-03-05T13:29:12.000Z,37.79
2023-03-05T13:31:48.038Z,38.22
2023-03-05T13:34:29.832Z,38.29
2023-03-05T13:37:07.783Z,38.65
2023-03-05T13:39:55.528Z,37.92
2023-03-05T13:42:28.584Z,38.09
2023-03-05T13:44:58.225Z,38.18
2023-03-05T13:47:33.592Z,38.44
2023-03-05T13:50:08.642Z,38.86
2023-03-05T13:52:38.938Z,38.08
2023-03-05T13:55:17.973Z,38.55
2023-03-05T13:57:51.403Z,38.50
2023-03-05T14:00:39.007Z,38.03
2023-03-05T14:03:34.678Z,37.84
2023-03-05T14:06:12.795Z,38.24
2023-03-05T14:08:40.405Z,37.99
2023-03-05T14:11:17.725Z,38.29
2023-03-05T14:13:47.738Z,37.89
2023-03-05T14:16:29.725Z,37.97
2023-03-05T14:19:02.452Z,38.06
2023-03-05T14:21:50.315Z,37.35
2023-03-05T14:24:31.174Z,37.65
2023-03-05T14:27:13.162Z,38.42
2023-03-05T14:29:46.737Z,37.95
2023-03-05T14:32:35.648Z,38.45
2023-03-05T14:35:06.519Z,37.96
2023-03-05T14:37:45.322Z,38.32
2023-03-05T14:40:12.472Z,38.89
2023-03-05T14:43:06.709Z,39.44
2023-03-05T14:45:40.740Z,40.02
2023-03-05T14:48:11.299Z,39.79
2023-03-05T14:50:51.520Z,39.65
2023-03-05T14:53:24.821Z,39.16
2023-03-05T14:55:59.160Z,39.59
2023-03-05T14:58:35.382Z,39.76
2023-03-05T15:01:02.838Z,39.82
2023-03-05T15:03:30.171Z,39.55
2023-03-05T15:05:59.110Z,40.01
2023-03-05T15:08:31.707Z,40.78
2023-03-05T15:11:00.147Z,40.66
2023-03-05T15:13:27.879Z,40.50
2023-03-05T15:15:55.529Z,40.69
2023-03-05T15:18:23.726Z,41.59
2023-03-05T15:20:54.916Z,41.59
2023-03-05T15:23:22.093Z,41.29
2023-03-05T15:25:50.320Z,41.43
2023-03-05T15:28:18.335Z,41.61
2023-03-05T15:30:47.768Z,42.19
2023-03-05T15:33:17.500Z,42.19
2023-03-05T15:35:45.523Z,42.37
2023-03-05T15:38:13.004Z,43.25
2023-03-05T15:40:40.429Z,43.06
2023-03-05T15:43:07.650Z,43.10
2023-03-05T15:45:35.191Z,43.29
2023-03-05T15:48:02.684Z,43.44
2023-03-05T15:50:30.169Z,42.99
2023-03-05T15:52:58.651Z,43.82
2023-03-05T15:55:26.781Z,43.98
2023-03-05T15:57:54.703Z,43.67
2023-03-05T16:00:31.781Z,43.20
2023-03-05T16:03:02.342Z,42.94
2023-03-05T16:05:30.137Z,43.20
2023-03-05T16:07:59.991Z,43.08
2023-03-05T16:10:30.706Z,43.54
2023-03-05T16:13:08.381Z,43.43
2023-03-05T16:15:39.080Z,43.85
2023-03-05T16:18:16.188Z,43.98
2023-03-05T16:20:43.824Z,44.60
2023-03-05T16:23:11.005Z,44.10
2023-03-05T16:25:38.360Z,44.32
2023-03-05T16:28:06.064Z,44.75
2023-03-05T16:30:33.624Z,43.74
2023-03-05T16:33:01.204Z,43.99
2023-03-05T16:35:28.547Z,43.97
2023-03-05T16:37:56.831Z,43.63
2023-03-05T16:40:25.908Z,43.45
2023-03-05T16:42:54.232Z,43.49
2023-03-05T16:45:26.601Z,43.83
2023-03-05T16:47:57.927Z,43.80
2023-03-05T16:50:25.765Z,43.60
2023-03-05T16:52:53.087Z,43.13
2023-03-05T16:55:20.792Z,43.34
2023-03-05T16:57:48.105Z,43.37
2023-03-05T17:00:18.735Z,43.32
2023-03-05T17:02:45.934Z,43.21
2023-03-05T17:05:13.201Z,43.30
2023-03-05T17:07:40.426Z,43.27
2023-03-05T17:10:09.165Z,43.31
2023-03-05T17:12:36.764Z,43.20
2023-03-05T17:15:05.999Z,43.50
2023-03-05T17:17:33.390Z,43.74
2023-03-05T17:20:00.605Z,43.66
2023-03-05T17:22:27.844Z,43.57
2023-03-05T17:24:55.149Z,43.35
2023-03-05T17:27:22.767Z,42.64
2023-03-05T17:29:50.070Z,43.20
2023-03-05T17:32:17.312Z,43.70
2023-03-05T17:34:44.590Z,43.71
2023-03-05T17:37:12.090Z,44.76
2023-03-05T17:39:39.704Z,44.78
2023-03-05T17:42:07.039Z,43.84
2023-03-05T17:44:34.188Z,43.25
2023-03-05T17:47:01.618Z,43.43
2023-03-05T17:49:30.589Z,43.20
2023-03-05T17:51:57.991Z,43.57
2023-03-05T17:54:27.359Z,43.54
2023-03-05T17:56:57.064Z,43.64
2023-03-05T17:59:26.541Z,43.89
2023-03-05T18:01:53.991Z,43.79
2023-03-05T18:04:21.408Z,43.93
2023-03-05T18:06:48.665Z,43.70
2023-03-05T18:09:15.896Z,43.69
2023-03-05T18:11:43.504Z,43.74
2023-03-05T18:14:10.906Z,43.86
2023-03-05T18:16:38.277Z,43.71
2023-03-05T18:19:05.666Z,43.38
2023-03-05T18:21:32.990Z,43.63
2023-03-05T18:24:00.172Z,43.35
2023-03-05T18:26:27.683Z,43.51
2023-03-05T18:28:55.032Z,43.69
2023-03-05T18:31:22.451Z,44.17
2023-03-05T18:33:51.034Z,44.48
2023-03-05T18:36:18.572Z,44.05
2023-03-05T18:38:46.072Z,45.18
2023-03-05T18:41:27.241Z,45.05
2023-03-05T18:44:21.215Z,44.97
2023-03-05T18:46:48.669Z,45.01
2023-03-05T18:49:15.866Z,45.28
2023-03-05T18:51:43.464Z,45.45
2023-03-05T18:54:10.749Z,45.05
2023-03-05T18:56:37.982Z,44.64
2023-03-05T18:59:05.422Z,45.81
2023-03-05T19:01:32.923Z,45.71
2023-03-05T19:04:00.453Z,46.10
2023-03-05T19:06:27.973Z,45.97
2023-03-05T19:08:58.711Z,46.87
2023-03-05T19:11:26.363Z,46.96
2023-03-05T19:13:54.081Z,46.43
2023-03-05T19:16:33.845Z,45.79
2023-03-05T19:19:16.181Z,45.28
2023-03-05T19:21:48.185Z,45.33
2023-03-05T19:24:17.828Z,44.82
2023-03-05T19:26:46.177Z,45.26
2023-03-05T19:29:14.155Z,45.19
2023-03-05T19:31:42.151Z,46.21
2023-03-05T19:34:09.432Z,46.86
2023-03-05T19:36:36.744Z,46.56
2023-03-05T19:39:07.793Z,46.96
2023-03-05T19:41:36.251Z,46.92
2023-03-05T19:44:07.057Z,47.18
2023-03-05T19:46:34.352Z,47.12
2023-03-05T19:49:01.813Z,47.72
2023-03-05T19:51:29.244Z,47.74
2023-03-05T19:53:56.827Z,47.74
2023-03-05T19:56:24.691Z,47.93
2023-03-05T19:58:52.543Z,47.88
2023-03-05T20:01:26.377Z,47.80
2023-03-05T20:03:57.997Z,47.90
2023-03-05T20:06:28.760Z,48.13
2023-03-05T20:08:58.155Z,47.68
2023-03-05T20:11:28.529Z,47.06
2023-03-05T20:13:56.843Z,46.32
2023-03-05T20:16:35.176Z,44.88
2023-03-05T20:19:05.835Z,45.92
2023-03-05T20:21:42.486Z,46.48
2023-03-05T20:24:15.540Z,46.45
2023-03-05T20:26:45.396Z,46.97
2023-03-05T20:29:17.586Z,46.90
2023-03-05T20:31:45.923Z,46.50
2023-03-05T20:34:18.170Z,46.33
2023-03-05T20:36:46.594Z,46.62
2023-03-05T20:39:14.066Z,46.13
2023-03-05T20:41:41.876Z,47.05
2023-03-05T20:44:11.322Z,47.39
2023-03-05T20:46:51.698Z,48.39
2023-03-05T20:49:19.728Z,48.54
2023-03-05T20:51:50.664Z,48.51
2023-03-05T20:54:17.995Z,49.28
2023-03-05T20:56:45.304Z,48.04
2023-03-05T20:59:12.574Z,47.27
2023-03-05T21:01:40.873Z,48.16
2023-03-05T21:04:09.261Z,47.75
2023-03-05T21:06:37.269Z,47.58
2023-03-05T21:09:04.699Z,48.07
2023-03-05T21:11:34.194Z,47.98
2023-03-05T21:14:04.994Z,46.98
2023-03-05T21:16:32.764Z,46.93
2023-03-05T21:19:00.675Z,47.67
2023-03-05T21:21:28.366Z,47.74
2023-03-05T21:23:56.004Z,46.83
2023-03-05T21:26:23.553Z,46.92
2023-03-05T21:28:50.802Z,47.72
2023-03-05T21:31:21.996Z,48.22
2023-03-05T21:33:49.702Z,48.47
2023-03-05T21:36:19.102Z,48.87
2023-03-05T21:38:48.863Z,49.24
2023-03-05T21:41:18.002Z,49.30
2023-03-05T21:43:45.436Z,48.29
2023-03-05T21:46:13.060Z,47.51
2023-03-05T21:48:40.329Z,47.81
2023-03-05T21:51:12.587Z,48.11
2023-03-05T21:53:44.038Z,48.15
2023-03-05T21:56:18.953Z,48.35
2023-03-05T21:58:49.353Z,47.54
2023-03-05T22:01:19.446Z,47.28
2023-03-05T22:03:50.536Z,47.38
2023-03-05T22:06:20.210Z,47.38
2023-03-05T22:08:48.617Z,48.15
2023-03-05T22:11:18.663Z,47.79
2023-03-05T22:13:46.017Z,48.00
2023-03-05T22:16:23.302Z,49.05
2023-03-05T22:18:56.934Z,48.73
2023-03-05T22:21:27.997Z,47.40
2023-03-05T22:23:59.355Z,47.15
2023-03-05T22:26:37.780Z,47.01
2023-03-05T22:29:08.613Z,47.77
2023-03-05T22:31:36.041Z,48.67
2023-03-05T22:34:04.137Z,49.21
2023-03-05T22:36:31.960Z,48.55
2023-03-05T22:38:59.342Z,48.74
2023-03-05T22:41:26.679Z,49.35
2023-03-05T22:44:18.853Z,49.44
2023-03-05T22:46:46.273Z,47.90
2023-03-05T22:49:16.531Z,47.26
2023-03-05T22:51:43.781Z,47.30
2023-03-05T22:54:11.138Z,47.15
2023-03-05T22:56:38.545Z,47.28
2023-03-05T22:59:05.749Z,47.25
2023-03-05T23:01:33.116Z,47.46
2023-03-05T23:04:08.158Z,47.47
2023-03-05T23:06:35.873Z,47.68
2023-03-05T23:09:06.776Z,47.38
2023-03-05T23:11:34.301Z,47.19
2023-03-05T23:14:04.193Z,46.51
2023-03-05T23:16:31.891Z,47.65
2023-03-05T23:18:59.453Z,48.00
2023-03-05T23:21:26.895Z,48.41
2023-03-05T23:23:57.001Z,48.32
2023-03-05T23:26:25.019Z,47.48
2023-03-05T23:28:52.333Z,47.50
2023-03-05T23:31:20.123Z,47.63
2023-03-05T23:33:47.677Z,47.62
2023-03-05T23:36:15.104Z,48.16
2023-03-05T23:38:42.421Z,47.35
2023-03-05T23:41:09.922Z,47.05
2023-03-05T23:43:37.206Z,46.99
2023-03-05T23:46:12.256Z,46.90
2023-03-05T23:48:39.585Z,46.32
2023-03-05T23:51:11.020Z,45.97
2023-03-05T23:53:38.421Z,46.38
2023-03-05T23:56:11.882Z,47.00
2023-03-05T23:58:40.400Z,48.85
